createdAt,value
2022-10-04T00:02:23.684Z,20.20
2022-10-04T00:05:16.774Z,20.30
2022-10-04T00:08:26.500Z,20.30
2022-10-04T00:11:35.408Z,20.30
2022-10-04T00:14:33.054Z,20.30
2022-10-04T00:17:27.913Z,20.20
2022-10-04T00:20:50.500Z,20.20
2022-10-04T00:23:37.116Z,20.20
2022-10-04T00:26:25.713Z,20.10
2022-10-04T00:29:35.113Z,20.10
2022-10-04T00:32:27.341Z,20.10
2022-10-04T00:35:25.994Z,20.00
2022-10-04T00:38:27.485Z,20.00
2022-10-04T00:41:14.611Z,20.00
2022-10-04T00:44:02.429Z,20.00
2022-10-04T00:46:52.313Z,20.10
2022-10-04T00:49:43.219Z,20.00
2022-10-04T00:52:32.198Z,20.00
2022-10-04T00:55:40.646Z,19.90
2022-10-04T00:58:36.316Z,19.90
2022-10-04T01:01:26.552Z,19.90
2022-10-04T01:04:29.243Z,19.90
2022-10-04T01:07:24.703Z,19.90
2022-10-04T01:10:39.519Z,19.80
2022-10-04T01:13:43.278Z,19.80
2022-10-04T01:16:33.649Z,19.80
2022-10-04T01:19:30.447Z,19.80
2022-10-04T01:22:50.308Z,19.70
2022-10-04T01:25:51.247Z,19.80
2022-10-04T01:28:38.671Z,19.70
2022-10-04T01:31:25.950Z,19.70
2022-10-04T01:34:16.076Z,19.70
2022-10-04T01:37:02.729Z,19.70
2022-10-04T01:39:49.186Z,19.70
2022-10-04T01:42:57.601Z,19.70
2022-10-04T01:45:49.172Z,19.60
2022-10-04T01:48:38.297Z,19.60
2022-10-04T01:51:30.154Z,19.60
2022-10-04T01:54:25.560Z,19.50
2022-10-04T01:57:31.796Z,19.50
2022-10-04T02:00:20.819Z,19.50
2022-10-04T02:03:17.968Z,19.50
2022-10-04T02:06:08.097Z,19.50
2022-10-04T02:08:57.580Z,19.40
2022-10-04T02:11:45.353Z,19.40
2022-10-04T02:14:35.744Z,19.30
2022-10-04T02:17:28.297Z,19.30
2022-10-04T02:20:18.736Z,19.30
2022-10-04T02:23:04.733Z,19.20
2022-10-04T02:25:53.540Z,19.20
2022-10-04T02:28:39.529Z,19.20
2022-10-04T02:31:46.658Z,19.10
2022-10-04T02:34:34.497Z,19.20
2022-10-04T02:37:23.769Z,19.10
2022-10-04T02:40:24.807Z,19.10
2022-10-04T02:43:17.050Z,19.00
2022-10-04T02:46:25.436Z,19.00
2022-10-04T02:49:27.683Z,18.90
2022-10-04T02:52:38.614Z,18.90
2022-10-04T02:55:31.670Z,18.90
2022-10-04T02:58:21.652Z,18.90
2022-10-04T03:01:15.765Z,18.90
2022-10-04T03:04:02.951Z,18.90
2022-10-04T03:06:50.126Z,18.90
2022-10-04T03:09:38.148Z,18.90
2022-10-04T03:12:23.953Z,18.80
2022-10-04T03:15:13.112Z,18.70
2022-10-04T03:18:00.393Z,18.70
2022-10-04T03:20:47.128Z,18.70
2022-10-04T03:23:33.749Z,18.80
2022-10-04T03:26:37.565Z,18.80
2022-10-04T03:29:27.086Z,18.80
2022-10-04T03:32:16.037Z,18.80
2022-10-04T03:35:05.717Z,18.80
2022-10-04T03:37:52.476Z,18.80
2022-10-04T03:40:43.497Z,18.90
2022-10-04T03:43:34.551Z,18.80
2022-10-04T03:46:23.255Z,18.70
2022-10-04T03:49:12.877Z,18.70
2022-10-04T03:51:59.741Z,18.70
2022-10-04T03:54:45.820Z,18.60
2022-10-04T03:57:32.386Z,18.70
2022-10-04T04:00:19.664Z,18.60
2022-10-04T04:03:10.366Z,18.60
2022-10-04T04:06:00.047Z,18.70
2022-10-04T04:08:51.249Z,18.70
2022-10-04T04:11:38.061Z,18.70
2022-10-04T04:14:27.481Z,18.70
2022-10-04T04:17:37.027Z,18.70
2022-10-04T04:20:30.301Z,18.70
2022-10-04T04:23:19.269Z,18.60
2022-10-04T04:26:36.998Z,18.50
2022-10-04T04:29:47.565Z,18.40
2022-10-04T04:32:44.703Z,18.50
2022-10-04T04:35:36.533Z,18.60
2022-10-04T04:38:26.123Z,18.60
2022-10-04T04:41:12.663Z,18.60
2022-10-04T04:43:59.128Z,18.70
2022-10-04T04:46:49.326Z,18.70
2022-10-04T04:49:40.160Z,18.60
2022-10-04T04:52:29.374Z,18.60
2022-10-04T04:56:01.741Z,18.60
2022-10-04T04:58:46.772Z,18.70
2022-10-04T05:01:48.737Z,18.70
2022-10-04T05:04:34.886Z,18.70
2022-10-04T05:07:22.102Z,18.70
2022-10-04T05:10:44.629Z,18.60
2022-10-04T05:13:51.509Z,18.30
2022-10-04T05:16:50.514Z,18.20
2022-10-04T05:19:39.698Z,18.20
2022-10-04T05:22:27.279Z,18.20
2022-10-04T05:25:31.007Z,18.10
2022-10-04T05:28:20.700Z,18.20
2022-10-04T05:31:33.410Z,18.30
2022-10-04T05:34:23.836Z,18.20
2022-10-04T05:38:00.999Z,18.20
2022-10-04T05:41:04.180Z,18.40
2022-10-04T05:43:51.516Z,18.50
2022-10-04T05:46:41.960Z,18.50
2022-10-04T05:49:38.959Z,18.50
2022-10-04T05:52:30.547Z,18.60
2022-10-04T05:55:29.083Z,18.60
2022-10-04T05:58:52.057Z,18.60
2022-10-04T06:01:51.376Z,18.80
2022-10-04T06:04:40.289Z,18.80
2022-10-04T06:07:34.880Z,18.80
2022-10-04T06:10:39.576Z,18.90
2022-10-04T06:14:01.000Z,18.90
2022-10-04T06:17:00.370Z,19.00
2022-10-04T06:20:11.911Z,19.00
2022-10-04T06:23:06.405Z,19.00
2022-10-04T06:25:57.643Z,19.10
2022-10-04T06:28:51.727Z,18.90
2022-10-04T06:32:11.346Z,18.70
2022-10-04T06:35:30.641Z,18.70
2022-10-04T06:38:26.391Z,18.70
2022-10-04T06:41:12.883Z,18.70
2022-10-04T06:44:03.160Z,18.90
2022-10-04T06:47:15.646Z,18.80
2022-10-04T06:50:25.338Z,19.00
2022-10-04T06:53:34.166Z,19.00
2022-10-04T06:56:41.150Z,19.00
2022-10-04T06:59:40.920Z,19.00
2022-10-04T07:02:36.347Z,19.00
2022-10-04T07:05:56.415Z,19.10
2022-10-04T07:08:47.954Z,19.20
2022-10-04T07:11:46.627Z,19.40
2022-10-04T07:14:37.879Z,19.50
2022-10-04T07:17:31.225Z,19.50
2022-10-04T07:20:25.559Z,19.60
2022-10-04T07:23:28.235Z,19.60
2022-10-04T07:26:29.072Z,19.60
2022-10-04T07:29:39.907Z,19.60
2022-10-04T07:32:33.191Z,19.50
2022-10-04T07:35:47.532Z,19.50
2022-10-04T07:38:38.373Z,19.50
2022-10-04T07:41:35.677Z,19.60
2022-10-04T07:44:30.450Z,19.50
2022-10-04T07:47:22.558Z,19.40
2022-10-04T07:50:27.758Z,19.50
2022-10-04T07:53:23.368Z,19.50
2022-10-04T07:56:19.657Z,19.40
2022-10-04T07:59:24.432Z,19.50
2022-10-04T08:02:31.008Z,19.70
2022-10-04T08:06:11.530Z,19.80
2022-10-04T08:09:18.601Z,19.90
2022-10-04T08:12:18.201Z,19.90
2022-10-04T08:15:10.305Z,20.10
2022-10-04T08:18:05.934Z,20.10
2022-10-04T08:21:05.369Z,20.10
2022-10-04T08:24:00.274Z,20.20
2022-10-04T08:27:12.441Z,20.10
2022-10-04T08:30:10.047Z,20.00
2022-10-04T08:33:17.799Z,20.20
2022-10-04T08:36:14.292Z,20.20
2022-10-04T08:39:01.162Z,20.30
2022-10-04T08:42:19.106Z,20.40
2022-10-04T08:45:21.149Z,20.30
2022-10-04T08:48:24.617Z,20.20
2022-10-04T08:51:56.538Z,20.10
2022-10-04T08:55:04.537Z,20.30
2022-10-04T08:58:01.635Z,20.60
2022-10-04T09:01:06.289Z,20.70
2022-10-04T09:04:30.047Z,20.70
2022-10-04T09:07:40.143Z,20.70
2022-10-04T09:10:50.874Z,20.70
2022-10-04T09:13:36.473Z,20.80
2022-10-04T09:16:50.111Z,20.80
2022-10-04T09:19:41.689Z,20.70
2022-10-04T09:22:48.307Z,20.90
2022-10-04T09:25:53.205Z,20.90
2022-10-04T09:29:02.449Z,20.80
2022-10-04T09:31:50.228Z,20.80
2022-10-04T09:34:56.070Z,20.90
2022-10-04T09:38:10.073Z,20.80
2022-10-04T09:41:13.861Z,20.90
2022-10-04T09:44:27.484Z,20.90
2022-10-04T09:47:34.100Z,20.90
2022-10-04T09:50:46.168Z,20.80
2022-10-04T09:53:46.587Z,20.80
2022-10-04T09:56:53.786Z,20.80
2022-10-04T10:00:07.180Z,20.80
2022-10-04T10:03:06.721Z,20.80
2022-10-04T10:06:34.712Z,20.80
2022-10-04T10:09:46.658Z,20.80
2022-10-04T10:13:07.679Z,20.90
2022-10-04T10:16:10.922Z,21.00
2022-10-04T10:19:15.334Z,21.00
2022-10-04T10:22:04.053Z,21.10
2022-10-04T10:25:11.277Z,21.30
2022-10-04T10:28:06.174Z,21.40
2022-10-04T10:31:26.494Z,21.50
2022-10-04T10:34:30.964Z,21.50
2022-10-04T10:37:33.692Z,21.60
2022-10-04T10:40:30.893Z,21.70
2022-10-04T10:43:31.384Z,21.80
2022-10-04T10:46:46.389Z,21.70
2022-10-04T10:50:01.745Z,21.70
2022-10-04T10:53:09.704Z,21.90
2022-10-04T10:56:16.114Z,21.90
2022-10-04T10:59:50.062Z,21.90
2022-10-04T11:03:13.603Z,22.00
2022-10-04T11:06:30.096Z,22.20
2022-10-04T11:09:51.707Z,22.20
2022-10-04T11:13:26.558Z,22.40
2022-10-04T11:16:51.615Z,22.50
2022-10-04T11:19:40.259Z,22.70
2022-10-04T11:22:46.644Z,22.70
2022-10-04T11:25:36.028Z,22.70
2022-10-04T11:28:29.844Z,22.80
2022-10-04T11:31:37.643Z,22.70
2022-10-04T11:34:58.006Z,22.80
2022-10-04T11:37:53.692Z,22.80
2022-10-04T11:41:27.856Z,22.80
2022-10-04T11:44:41.772Z,23.00
2022-10-04T11:47:28.768Z,23.20
2022-10-04T11:50:23.008Z,23.20
2022-10-04T11:53:37.237Z,23.20
2022-10-04T11:56:48.397Z,23.40
2022-10-04T12:00:00.145Z,23.80
2022-10-04T12:03:11.326Z,24.00
2022-10-04T12:06:09.057Z,23.80
2022-10-04T12:09:33.771Z,24.00
2022-10-04T12:12:50.058Z,24.10
2022-10-04T12:15:54.414Z,24.20
2022-10-04T12:18:46.699Z,24.30
2022-10-04T12:21:59.973Z,24.40
2022-10-04T12:25:19.637Z,24.60
2022-10-04T12:28:27.554Z,24.60
2022-10-04T12:31:33.610Z,24.70
2022-10-04T12:34:39.152Z,24.90
2022-10-04T12:37:41.514Z,25.10
2022-10-04T12:41:18.614Z,25.10
2022-10-04T12:44:34.103Z,25.10
2022-10-04T12:47:52.143Z,25.10
2022-10-04T12:51:07.216Z,25.10
2022-10-04T12:54:08.252Z,25.70
2022-10-04T12:57:01.751Z,25.90
2022-10-04T12:59:57.044Z,25.90
2022-10-04T13:03:31.547Z,25.60
2022-10-04T13:06:26.335Z,25.40
2022-10-04T13:10:22.494Z,25.50
2022-10-04T13:13:41.625Z,25.60
2022-10-04T13:20:22.884Z,26.00
2022-10-04T13:23:37.334Z,26.20
2022-10-04T13:26:32.506Z,26.60
2022-10-04T13:29:33.224Z,26.80
2022-10-04T13:32:28.866Z,28.10
2022-10-04T13:35:25.975Z,29.50
2022-10-04T13:38:50.383Z,31.00
2022-10-04T13:41:54.162Z,31.10
2022-10-04T13:44:46.786Z,31.50
2022-10-04T13:47:46.818Z,31.30
2022-10-04T13:50:42.551Z,30.60
2022-10-04T13:54:15.420Z,30.40
2022-10-04T13:57:23.691Z,30.30
2022-10-04T14:00:19.125Z,30.90
2022-10-04T14:03:05.199Z,30.70
2022-10-04T14:06:13.272Z,30.50
2022-10-04T14:09:17.362Z,30.00
2022-10-04T14:12:35.966Z,29.80
2022-10-04T14:15:24.204Z,30.50
2022-10-04T14:18:37.694Z,31.10
2022-10-04T14:21:47.258Z,30.90
2022-10-04T14:24:39.959Z,30.10
2022-10-04T14:27:39.813Z,30.40
2022-10-04T14:31:04.217Z,31.10
2022-10-04T14:34:38.891Z,31.50
2022-10-04T14:37:43.296Z,31.60
2022-10-04T14:40:47.245Z,31.90
2022-10-04T14:43:33.485Z,31.90
2022-10-04T14:46:19.979Z,32.50
2022-10-04T14:49:20.423Z,32.90
2022-10-04T14:52:32.461Z,33.10
2022-10-04T14:55:31.132Z,33.20
2022-10-04T14:58:31.283Z,33.00
2022-10-04T15:01:23.107Z,33.50
2022-10-04T15:04:32.923Z,33.80
2022-10-04T15:07:32.169Z,33.90
2022-10-04T15:10:38.207Z,33.90
2022-10-04T15:13:35.321Z,32.70
2022-10-04T15:16:52.984Z,32.60
2022-10-04T15:20:02.550Z,32.90
2022-10-04T15:23:34.773Z,32.30
2022-10-04T15:26:21.176Z,32.90
2022-10-04T15:29:27.839Z,33.30
2022-10-04T15:32:39.672Z,33.50
2022-10-04T15:35:31.318Z,33.40
2022-10-04T15:38:53.760Z,32.60
2022-10-04T15:41:46.060Z,31.70
2022-10-04T15:45:14.522Z,31.10
2022-10-04T15:48:35.095Z,30.10
2022-10-04T15:52:03.533Z,30.20
2022-10-04T15:54:55.919Z,30.80
2022-10-04T15:57:45.448Z,31.10
2022-10-04T16:01:19.874Z,30.60
2022-10-04T16:04:31.971Z,30.10
2022-10-04T16:07:30.166Z,29.40
2022-10-04T16:10:19.634Z,29.40
2022-10-04T16:13:32.237Z,29.30
2022-10-04T16:16:19.403Z,29.40
2022-10-04T16:19:42.725Z,29.00
2022-10-04T16:22:34.101Z,28.10
2022-10-04T16:25:26.246Z,27.60
2022-10-04T16:28:35.050Z,27.30
2022-10-04T16:31:52.390Z,26.90
2022-10-04T16:34:59.009Z,26.80
2022-10-04T16:38:00.324Z,26.60
2022-10-04T16:40:52.079Z,26.30
2022-10-04T16:44:00.305Z,26.10
2022-10-04T16:46:51.413Z,25.90
2022-10-04T16:49:49.265Z,25.80
2022-10-04T16:52:48.401Z,25.60
2022-10-04T16:55:51.611Z,25.40
2022-10-04T16:58:57.002Z,25.30
2022-10-04T17:02:07.354Z,25.10
2022-10-04T17:05:41.214Z,25.00
2022-10-04T17:08:48.753Z,24.80
2022-10-04T17:11:44.180Z,24.70
2022-10-04T17:14:49.357Z,24.50
2022-10-04T17:17:58.222Z,24.40
2022-10-04T17:20:46.923Z,24.30
2022-10-04T17:23:39.124Z,24.20
2022-10-04T17:26:58.993Z,24.10
2022-10-04T17:30:41.984Z,24.10
2022-10-04T17:33:47.094Z,23.90
2022-10-04T17:36:41.240Z,23.80
2022-10-04T17:39:32.869Z,23.70
2022-10-04T17:42:38.325Z,23.60
2022-10-04T17:45:45.391Z,23.50
2022-10-04T17:48:57.927Z,23.50
2022-10-04T17:52:08.194Z,23.40
2022-10-04T17:55:17.602Z,23.30
2022-10-04T17:58:13.618Z,23.20
2022-10-04T18:01:41.266Z,23.20
2022-10-04T18:04:40.413Z,23.00
2022-10-04T18:07:34.268Z,22.90
2022-10-04T18:11:06.083Z,22.90
2022-10-04T18:14:00.799Z,22.80
2022-10-04T18:17:04.081Z,22.80
2022-10-04T18:20:08.254Z,22.80
2022-10-04T18:22:58.816Z,22.70
2022-10-04T18:25:46.515Z,22.70
2022-10-04T18:28:35.126Z,22.60
2022-10-04T18:31:38.068Z,22.50
2022-10-04T18:34:29.413Z,22.40
2022-10-04T18:37:38.742Z,22.40
2022-10-04T18:40:33.973Z,22.30
2022-10-04T18:43:33.203Z,22.30
2022-10-04T18:46:21.578Z,22.20
2022-10-04T18:49:24.665Z,22.20
2022-10-04T18:52:10.742Z,22.20
2022-10-04T18:55:18.385Z,22.10
2022-10-04T18:58:41.294Z,22.10
2022-10-04T19:01:59.671Z,22.00
2022-10-04T19:05:02.171Z,22.00
2022-10-04T19:07:59.026Z,21.90
2022-10-04T19:10:58.069Z,21.90
2022-10-04T19:14:18.692Z,21.80
2022-10-04T19:17:27.083Z,21.80
2022-10-04T19:20:40.731Z,21.80
2022-10-04T19:23:33.146Z,21.70
2022-10-04T19:26:39.507Z,21.70
2022-10-04T19:30:02.105Z,21.60
2022-10-04T19:33:06.988Z,21.50
2022-10-04T19:36:08.211Z,21.50
2022-10-04T19:38:54.285Z,21.50
2022-10-04T19:42:00.462Z,21.40
2022-10-04T19:45:07.309Z,21.40
2022-10-04T19:47:58.944Z,21.40
2022-10-04T19:50:49.823Z,21.40
2022-10-04T19:53:42.519Z,21.30
2022-10-04T19:56:33.112Z,21.30
2022-10-04T19:59:35.837Z,21.20
2022-10-04T20:02:22.046Z,21.20
2022-10-04T20:05:16.209Z,21.20
2022-10-04T20:08:06.256Z,21.30
2022-10-04T20:11:32.120Z,21.20
2022-10-04T20:14:21.528Z,21.10
2022-10-04T20:20:57.002Z,21.10
2022-10-04T20:23:47.732Z,21.00
2022-10-04T20:26:54.463Z,21.00
2022-10-04T20:29:40.605Z,20.90
2022-10-04T20:32:26.621Z,20.90
2022-10-04T20:35:33.688Z,20.90
2022-10-04T20:38:32.181Z,20.90
2022-10-04T20:41:50.006Z,20.80
2022-10-04T20:44:43.322Z,20.70
2022-10-04T20:47:54.907Z,20.70
2022-10-04T20:50:43.255Z,20.70
2022-10-04T20:53:32.014Z,20.60
2022-10-04T20:56:26.678Z,20.70
2022-10-04T20:59:15.704Z,20.60
2022-10-04T21:02:12.169Z,20.60
2022-10-04T21:05:14.623Z,20.50
2022-10-04T21:08:24.468Z,20.50
2022-10-04T21:11:21.011Z,20.40
2022-10-04T21:14:29.252Z,20.40
2022-10-04T21:17:30.866Z,20.40
2022-10-04T21:20:43.763Z,20.40
2022-10-04T21:23:34.442Z,20.40
2022-10-04T21:26:21.481Z,20.30
2022-10-04T21:29:07.307Z,20.30
2022-10-04T21:31:55.783Z,20.20
2022-10-04T21:34:53.149Z,20.20
2022-10-04T21:37:39.770Z,20.20
2022-10-04T21:40:25.178Z,20.10
2022-10-04T21:43:12.152Z,20.10
2022-10-04T21:45:59.422Z,20.10
2022-10-04T21:48:45.481Z,20.00
2022-10-04T21:51:33.115Z,20.00
2022-10-04T21:54:19.388Z,20.00
2022-10-04T21:57:05.872Z,20.00
2022-10-04T21:59:52.652Z,19.80
2022-10-04T22:02:38.426Z,19.70
2022-10-04T22:05:25.353Z,19.80
2022-10-04T22:08:11.949Z,19.80
2022-10-04T22:10:58.095Z,19.80
2022-10-04T22:13:44.704Z,19.80
2022-10-04T22:16:30.944Z,19.80
2022-10-04T22:19:17.809Z,19.80
2022-10-04T22:22:03.493Z,19.70
2022-10-04T22:24:49.124Z,19.60
2022-10-04T22:27:34.657Z,19.60
2022-10-04T22:30:29.884Z,19.60
2022-10-04T22:33:43.980Z,19.60
2022-10-04T22:36:39.357Z,19.60
2022-10-04T22:39:27.791Z,19.60
2022-10-04T22:42:15.194Z,19.60
2022-10-04T22:45:02.328Z,19.50
2022-10-04T22:47:49.021Z,19.50
2022-10-04T22:50:37.527Z,19.50
2022-10-04T22:53:24.276Z,19.50
2022-10-04T22:56:11.653Z,19.50
2022-10-04T22:58:59.333Z,19.50
2022-10-04T23:01:46.765Z,19.50
2022-10-04T23:04:32.737Z,19.40
2022-10-04T23:07:19.775Z,19.50
2022-10-04T23:10:06.181Z,19.40
2022-10-04T23:12:52.129Z,19.40
2022-10-04T23:15:38.695Z,19.40
2022-10-04T23:18:24.158Z,19.40
2022-10-04T23:21:21.858Z,19.40
2022-10-04T23:24:17.355Z,19.50
2022-10-04T23:27:04.089Z,19.50
2022-10-04T23:30:05.445Z,19.50
2022-10-04T23:32:56.760Z,19.50
2022-10-04T23:35:42.750Z,19.50
2022-10-04T23:38:30.175Z,19.50
2022-10-04T23:41:19.136Z,19.50
2022-10-04T23:44:13.112Z,19.50
2022-10-04T23:46:58.989Z,19.40
2022-10-04T23:49:48.715Z,19.40
2022-10-04T23:52:40.042Z,19.40
2022-10-04T23:55:31.552Z,19.40
2022-10-04T23:58:23.805Z,19.30
